Hlavní strana
METAR-TAF:

METAR-TAF

Letiště :

Batman, Turecko

zeměpisná šířka: 37-52N, zeměpisná délka: 041-10E, výška: 540 m

Aktuální stav počasí

Zpráva byla vytvořena před 30 minutami, v 23:50 UTC
Západní vítr 3 kt, proměnlivý mezi jihozápadním a západoseverozápadním
Teplota 22°C
Vlhkost vzduchu 43%
Tlak 1010 hPa
Viditelnost 10 km a více
Žádná oblačnost pod 1500 m, nevyskytují se cumulonimby.

METAR: LTCJ 222350Z 26003KT 230V290 CAVOK 22/09 Q1010 RMK RWY20 VRB02KT SKC

Čas: 03:20 (00:20 UTC)

Předpověď počasí

Zpráva byla vytvořena před 1 hodinou a 40 minutami, v 22:40 UTC
Předpověď platná od 23 v 00 UTC do 23 v 24 UTC
vítr z různých směrů 2 kt
Viditelnost 10 km a více
Žádná oblačnost pod 1500 m, nevyskytují se cumulonimby.
Změna
od 23 v 07 UTC do 23 v 09 UTC
Jihojihozápadní vítr 12 kt
Změna
od 23 v 16 UTC do 23 v 18 UTC
vítr z různých směrů 2 kt

TAF: LTCJ 222240Z 2300/2324 VRB02KT CAVOK BECMG 2307/2309 20012KT BECMG 2316/2318 VRB02KT

Stav a předpovědi počasí z více než 4 000 letišť (zprávy METAR a TAF).

Červené a žluté tečky na mapě představují dostupné meteorologické stanice.

Když kurzor umístíte na tečku, zobrazí se název stanice.

Pak kliknutím zobrazíte stav a předpověď počasí.

Chcete-li změnit mapu, kliknutím na zelené tlačítko se znaménkem +mapu přiblížíte, kliknutím na zelené tlačítko se znaménkem – mapu oddálíte a kliknutím na zelené šipky přejdete na sousední mapy.


METAR-TAF: